Time;durP1;ratioP1;P1;durP2;ratioP2;P2;SDS_P1;SDS_P2;PMS_P1;PMS_P2;Temp;Humidity;BMP_temperature;BMP_pressure;BME280_temperature;BME280_humidity;BME280_pressure;Samples;Min_cycle;Max_cycle;Signal;HPM_P1;HPM_P2
2022/06/04 00:02:05;;;;;;;4.50;3.30;;;;;;;20.51;41.31;99152.81;233628;1217;138683;-62
2022/06/04 00:07:08;;;;;;;4.10;3.10;;;;;;;20.47;41.56;99145.67;233310;1217;140700;-63
2022/06/04 00:17:32;;;;;;;6.70;3.90;;;;;;;20.34;41.76;99128.05;233598;1217;138710;-62
2022/06/04 00:22:35;;;;;;;4.90;3.20;;;;;;;20.29;41.98;99137.52;233622;1217;138888;-61
2022/06/04 00:27:38;;;;;;;6.30;3.40;;;;;;;20.23;42.15;99132.55;233392;1217;138612;-61
2022/06/04 00:32:41;;;;;;;7.50;3.70;;;;;;;20.17;42.32;99124.86;233605;1217;138583;-61
2022/06/04 00:37:44;;;;;;;4.90;3.50;;;;;;;20.10;42.43;99123.44;233519;1217;138395;-60
2022/06/04 00:42:48;;;;;;;5.10;3.20;;;;;;;20.03;42.57;99124.25;233562;1217;138541;-63
2022/06/04 00:47:51;;;;;;;5.10;3.40;;;;;;;19.97;42.74;99124.20;233607;1217;138877;-63
2022/06/04 00:52:57;;;;;;;6.30;3.70;;;;;;;19.92;42.85;99119.64;233462;1217;138498;-63
2022/06/04 00:58:09;;;;;;;6.40;3.60;;;;;;;19.87;43.11;99114.34;233565;1217;138648;-63
2022/06/04 01:03:21;;;;;;;7.10;3.60;;;;;;;19.81;43.29;99117.10;233619;1217;138591;-63
2022/06/04 01:08:24;;;;;;;5.90;3.60;;;;;;;19.71;43.42;99110.52;233320;1217;138880;-63
2022/06/04 01:13:54;;;;;;;7.30;3.70;;;;;;;19.63;43.66;99112.62;233459;1217;138641;-63
2022/06/04 01:19:06;;;;;;;5.80;3.70;;;;;;;19.55;43.81;99112.27;233486;1217;139661;-63
2022/06/04 01:24:24;;;;;;;7.50;4.40;;;;;;;19.52;43.95;99099.63;233485;1217;139564;-62
2022/06/04 01:29:36;;;;;;;5.40;4.00;;;;;;;19.49;44.13;99096.82;233398;1217;139147;-62
2022/06/04 01:34:48;;;;;;;5.70;4.00;;;;;;;19.47;44.07;99091.61;233463;1217;139285;-62
2022/06/04 01:45:21;;;;;;;6.60;3.80;;;;;;;19.42;44.21;99080.25;233621;1217;138791;-60
2022/06/04 01:50:30;;;;;;;5.70;4.10;;;;;;;19.40;44.20;99081.03;233605;1217;138460;-61
2022/06/04 01:55:49;;;;;;;6.20;4.30;;;;;;;19.34;44.33;99079.23;233599;1217;139182;-62
2022/06/04 02:01:01;;;;;;;5.30;3.80;;;;;;;19.37;44.58;99073.73;233605;1217;139251;-60
2022/06/04 02:06:19;;;;;;;7.10;4.20;;;;;;;19.37;44.53;99069.93;233547;1217;139589;-60
2022/06/04 02:11:24;;;;;;;5.90;3.70;;;;;;;19.36;44.64;99063.35;233609;1215;139054;-60
2022/06/04 02:16:31;;;;;;;7.20;4.20;;;;;;;19.33;44.72;99058.61;233550;1217;138980;-61
2022/06/04 02:21:35;;;;;;;4.80;3.90;;;;;;;19.32;44.72;99061.33;233679;1217;138555;-63
2022/06/04 02:26:41;;;;;;;6.20;4.20;;;;;;;19.28;44.92;99055.52;233559;1217;138535;-64
2022/06/04 02:32:12;;;;;;;6.70;4.30;;;;;;;19.29;45.10;99057.29;233573;1217;138692;-63
2022/06/04 02:37:30;;;;;;;6.80;4.10;;;;;;;19.27;45.24;99048.83;233631;1216;138516;-61
2022/06/04 02:43:07;;;;;;;6.90;4.20;;;;;;;19.29;45.41;99055.52;233515;1217;138357;-63
2022/06/04 02:48:28;;;;;;;7.60;4.30;;;;;;;19.27;45.51;99047.58;233544;1217;139134;-63
2022/06/04 02:53:33;;;;;;;7.30;4.10;;;;;;;19.27;45.54;99036.09;233741;1216;138599;-62
2022/06/04 02:58:39;;;;;;;6.30;4.20;;;;;;;19.28;45.56;99035.76;233657;1217;139541;-63
2022/06/04 03:03:43;;;;;;;6.40;4.40;;;;;;;19.25;45.61;99034.65;233725;1217;138336;-62
2022/06/04 03:08:47;;;;;;;12.40;5.10;;;;;;;19.21;45.82;99032.91;233608;1217;140499;-62
2022/06/04 03:13:50;;;;;;;14.00;6.60;;;;;;;19.10;46.72;99023.31;233619;1217;138542;-63
2022/06/04 03:18:52;;;;;;;264.60;235.70;;;;;;;18.90;47.45;99027.08;233544;1217;138753;-60
2022/06/04 03:23:55;;;;;;;117.90;97.30;;;;;;;18.74;48.71;99023.58;233500;1217;140044;-60
2022/06/04 03:28:58;;;;;;;10.90;8.40;;;;;;;18.64;49.39;99023.98;233476;1217;139130;-62
2022/06/04 03:34:03;;;;;;;10.00;6.20;;;;;;;18.54;49.85;99026.20;233687;1217;138538;-60
2022/06/04 03:39:08;;;;;;;33.00;24.10;;;;;;;18.45;50.35;99028.97;233717;1217;139398;-60
2022/06/04 03:44:14;;;;;;;9.00;6.40;;;;;;;18.39;50.82;99027.55;233620;1217;138850;-61
2022/06/04 03:49:17;;;;;;;7.00;5.10;;;;;;;18.32;51.21;99025.71;233589;1217;138819;-61
2022/06/04 03:54:52;;;;;;;8.90;5.70;;;;;;;18.29;51.73;99019.71;233609;1217;138930;-61
2022/06/04 03:59:43;;;;;;;6.20;5.40;;;;;;;18.23;52.11;99010.25;233466;1217;139425;-61
2022/06/04 04:04:47;;;;;;;8.80;5.60;;;;;;;18.18;52.40;99021.47;233548;1217;139309;-62
2022/06/04 04:09:50;;;;;;;9.50;4.80;;;;;;;18.17;52.75;99021.95;233634;1217;140731;-63
2022/06/04 04:14:53;;;;;;;180.70;133.00;;;;;;;18.22;53.06;99017.36;233755;1217;138885;-63
2022/06/04 04:19:56;;;;;;;33.70;24.70;;;;;;;18.34;53.53;99018.88;233525;1217;139766;-61
2022/06/04 04:24:59;;;;;;;8.20;5.40;;;;;;;18.68;54.04;99022.50;233815;1217;139125;-64
2022/06/04 04:30:08;;;;;;;6.30;5.40;;;;;;;18.74;53.62;99020.16;233714;1216;141103;-61
2022/06/04 04:35:15;;;;;;;7.20;5.50;;;;;;;18.68;53.43;99024.85;233716;1217;138802;-60
2022/06/04 04:40:20;;;;;;;7.90;5.30;;;;;;;18.61;53.25;99029.10;233593;1217;139788;-61
2022/06/04 04:45:24;;;;;;;7.50;5.60;;;;;;;18.58;53.29;99041.77;233726;1217;138741;-60
2022/06/04 04:50:32;;;;;;;7.10;5.50;;;;;;;18.51;53.40;99049.13;233495;1217;138505;-60
2022/06/04 04:55:35;;;;;;;8.70;5.90;;;;;;;18.44;53.78;99060.02;233615;1217;138701;-61
2022/06/04 05:00:38;;;;;;;10.40;5.80;;;;;;;18.40;54.03;99063.99;233602;1217;138997;-61
2022/06/04 05:05:41;;;;;;;7.70;5.50;;;;;;;18.39;54.18;99064.65;233558;1217;139340;-59
2022/06/04 05:10:44;;;;;;;7.20;5.50;;;;;;;18.39;54.52;99076.59;233569;1217;139230;-62
2022/06/04 05:15:47;;;;;;;6.10;5.10;;;;;;;18.45;54.84;99089.38;233679;1216;140625;-62
2022/06/04 05:20:50;;;;;;;10.00;6.10;;;;;;;18.51;54.92;99091.73;233591;1217;139676;-62
2022/06/04 05:25:53;;;;;;;8.10;5.90;;;;;;;18.58;54.98;99111.30;233589;1215;139376;-61
2022/06/04 05:30:56;;;;;;;9.40;5.70;;;;;;;18.62;54.84;99121.92;233618;1217;138368;-61
2022/06/04 05:35:59;;;;;;;15.30;7.00;;;;;;;18.67;54.63;99124.84;233584;1217;139225;-59
2022/06/04 05:41:06;;;;;;;9.60;6.30;;;;;;;18.70;54.51;99126.17;233540;1217;139358;-60
2022/06/04 05:46:12;;;;;;;10.00;5.70;;;;;;;18.71;54.47;99131.66;233598;1216;138998;-59
2022/06/04 05:51:24;;;;;;;11.20;6.60;;;;;;;18.71;54.40;99145.36;233741;1217;138758;-64
2022/06/04 05:56:31;;;;;;;12.60;7.40;;;;;;;18.71;54.22;99138.72;233545;1217;138803;-64
2022/06/04 06:01:35;;;;;;;10.00;7.30;;;;;;;18.67;54.37;99128.81;233520;1217;138904;-64
2022/06/04 06:06:41;;;;;;;13.20;7.50;;;;;;;18.62;54.66;99117.44;233595;1217;138783;-62
2022/06/04 06:11:45;;;;;;;12.10;7.20;;;;;;;18.57;54.96;99116.86;233442;1217;139442;-62
2022/06/04 06:16:49;;;;;;;11.00;7.80;;;;;;;18.54;55.36;99108.83;233697;1217;139295;-62
2022/06/04 06:21:52;;;;;;;12.50;7.10;;;;;;;18.51;55.48;99105.20;233485;1217;139447;-62
2022/06/04 06:26:58;;;;;;;9.70;6.80;;;;;;;18.48;55.89;99098.59;233533;1217;140392;-59
2022/06/04 06:32:01;;;;;;;13.60;6.70;;;;;;;18.48;56.24;99100.39;233681;1217;139359;-62
2022/06/04 06:37:04;;;;;;;12.20;7.00;;;;;;;18.54;56.71;99090.47;233756;1215;139092;-64
2022/06/04 06:42:08;;;;;;;11.90;7.00;;;;;;;18.56;56.74;99085.78;233704;1217;139356;-58
2022/06/04 06:47:18;;;;;;;11.40;7.20;;;;;;;18.57;56.82;99083.06;233498;1217;138625;-60
2022/06/04 06:52:21;;;;;;;9.80;6.60;;;;;;;18.60;57.09;99074.85;233518;1217;140253;-64
2022/06/04 06:57:24;;;;;;;8.40;6.00;;;;;;;18.65;57.02;99075.80;233754;1216;138706;-64
2022/06/04 07:02:27;;;;;;;7.60;6.50;;;;;;;18.64;56.87;99071.95;233363;1217;138304;-63
2022/06/04 07:07:31;;;;;;;9.80;5.90;;;;;;;18.59;57.13;99079.40;233293;1217;139031;-62
2022/06/04 07:12:34;;;;;;;7.30;6.00;;;;;;;18.58;57.70;99087.22;233470;1217;139517;-63
2022/06/04 07:17:37;;;;;;;10.80;6.90;;;;;;;18.62;57.86;99084.02;233710;1217;139025;-63
2022/06/04 07:22:40;;;;;;;11.70;7.10;;;;;;;18.75;58.42;99091.92;233702;1217;138441;-60
2022/06/04 07:27:43;;;;;;;8.70;7.30;;;;;;;18.82;58.46;99092.00;233297;1217;138308;-61
2022/06/04 07:32:46;;;;;;;16.30;8.20;;;;;;;18.81;58.46;99102.36;233540;1217;138897;-61
2022/06/04 07:37:49;;;;;;;10.10;7.30;;;;;;;18.77;58.62;99101.52;233767;1216;138460;-63
2022/06/04 07:42:52;;;;;;;10.00;7.50;;;;;;;18.79;58.75;99114.28;233680;1217;139364;-61
2022/06/04 07:47:55;;;;;;;10.00;6.70;;;;;;;18.82;58.92;99118.65;233600;1217;139297;-62
2022/06/04 07:52:58;;;;;;;20.60;12.20;;;;;;;18.91;59.07;99130.52;233454;1217;151782;-61
2022/06/04 07:58:01;;;;;;;30.80;21.30;;;;;;;19.03;59.51;99130.16;233670;1216;141653;-63
2022/06/04 08:03:07;;;;;;;43.50;25.80;;;;;;;19.15;59.56;99127.85;233743;1217;139169;-61
2022/06/04 08:08:10;;;;;;;;;;;;;;;19.20;59.52;99129.95;233710;1217;138831;-62
2022/06/04 08:13:47;;;;;;;18.00;12.90;;;;;;;19.23;59.58;99129.15;233779;1217;125331;-64
2022/06/04 08:18:43;;;;;;;13.80;12.10;;;;;;;19.22;59.39;99137.15;233676;1216;139380;-63
2022/06/04 08:23:46;;;;;;;14.10;10.80;;;;;;;19.19;59.35;99136.73;233677;1216;138810;-63
2022/06/04 08:28:50;;;;;;;12.50;10.40;;;;;;;19.20;59.36;99133.19;233659;1216;139287;-61
2022/06/04 08:33:53;;;;;;;14.00;10.00;;;;;;;19.24;59.27;99150.98;233510;1216;138895;-63
2022/06/04 08:38:56;;;;;;;12.90;8.80;;;;;;;19.28;59.40;99156.33;233722;1216;138787;-58
2022/06/04 08:44:07;;;;;;;13.00;8.40;;;;;;;19.38;59.58;99164.10;233660;1217;139081;-59
2022/06/04 08:49:14;;;;;;;9.30;8.00;;;;;;;19.69;59.76;99156.82;233517;1216;138725;-64
2022/06/04 08:59:52;;;;;;;11.70;8.60;;;;;;;20.23;59.13;99165.50;233519;1217;139678;-58
2022/06/04 09:05:24;;;;;;;11.10;8.80;;;;;;;20.32;58.82;99169.34;233574;1216;139415;-57
2022/06/04 09:10:34;;;;;;;11.10;9.20;;;;;;;20.37;58.71;99165.95;233716;1217;138824;-58
2022/06/04 09:15:41;;;;;;;9.70;8.10;;;;;;;20.52;58.69;99165.48;233739;1217;141717;-58
2022/06/04 09:20:48;;;;;;;9.60;7.10;;;;;;;20.67;58.35;99171.55;233537;1217;139728;-61
2022/06/04 09:26:04;;;;;;;11.10;9.50;;;;;;;20.73;58.19;99169.01;233550;1217;138880;-61
2022/06/04 09:31:22;;;;;;;12.40;9.90;;;;;;;20.81;58.16;99169.02;233566;1216;139008;-61
2022/06/04 09:36:33;;;;;;;13.40;9.60;;;;;;;20.79;58.08;99162.27;233642;1216;139409;-59
2022/06/04 09:41:35;;;;;;;9.70;8.50;;;;;;;20.77;58.10;99146.61;233503;1217;138594;-63
2022/06/04 09:46:43;;;;;;;12.20;10.10;;;;;;;20.77;58.20;99136.48;233518;1217;139545;-60
2022/06/04 09:51:46;;;;;;;13.20;9.90;;;;;;;20.79;58.23;99144.76;233751;1216;138864;-61
2022/06/04 09:56:53;;;;;;;11.70;8.80;;;;;;;20.71;58.12;99160.71;233578;1217;139440;-60
2022/06/04 10:02:02;;;;;;;10.30;9.10;;;;;;;20.60;58.22;99168.30;233493;1216;139286;-62
2022/06/04 10:07:08;;;;;;;10.70;9.00;;;;;;;20.53;58.49;99162.87;233441;1217;139922;-62
2022/06/04 10:12:21;;;;;;;12.90;9.70;;;;;;;20.51;58.85;99163.60;233530;1217;138743;-61
2022/06/04 10:17:43;;;;;;;12.10;9.10;;;;;;;20.52;59.16;99162.92;233373;1218;139039;-60
2022/06/04 10:22:50;;;;;;;11.50;10.20;;;;;;;20.59;59.25;99161.54;233594;1216;139066;-63
2022/06/04 10:28:08;;;;;;;9.40;7.80;;;;;;;20.62;59.52;99162.77;233457;1217;138971;-63
2022/06/04 10:33:25;;;;;;;9.10;7.90;;;;;;;20.65;59.46;99160.67;233900;1216;139406;-62
2022/06/04 10:39:12;;;;;;;9.50;7.80;;;;;;;20.64;59.44;99158.21;233532;1216;138696;-63
2022/06/04 10:44:49;;;;;;;9.20;8.20;;;;;;;20.61;59.59;99161.79;233473;1216;138747;-62
2022/06/04 10:50:27;;;;;;;12.80;8.90;;;;;;;20.59;59.74;99165.80;233644;1216;138903;-63
2022/06/04 10:55:40;;;;;;;10.40;8.00;;;;;;;20.58;59.98;99168.21;233757;1216;139032;-62
2022/06/04 11:00:51;;;;;;;10.80;8.60;;;;;;;20.62;60.15;99172.10;233617;1217;139970;-64
2022/06/04 11:06:05;;;;;;;39.20;29.10;;;;;;;20.71;60.24;99168.34;233497;1216;139177;-64
2022/06/04 11:11:28;;;;;;;16.50;14.30;;;;;;;20.92;59.90;99168.28;233177;1216;138581;-64
2022/06/04 11:16:41;;;;;;;28.10;22.20;;;;;;;21.12;59.74;99168.45;233556;1216;139056;-64
2022/06/04 11:21:45;;;;;;;26.00;20.70;;;;;;;21.25;59.42;99170.64;233694;1217;138841;-64
2022/06/04 11:27:07;;;;;;;16.80;15.00;;;;;;;21.33;59.35;99169.14;233624;1217;139521;-63
2022/06/04 11:32:22;;;;;;;14.80;13.20;;;;;;;21.38;59.26;99166.61;233442;1217;138917;-64
2022/06/04 11:37:49;;;;;;;12.30;11.00;;;;;;;21.43;59.24;99163.38;233557;1217;138841;-63
2022/06/04 11:43:22;;;;;;;10.60;9.50;;;;;;;21.50;59.25;99149.84;233688;1217;139799;-63
2022/06/04 11:48:31;;;;;;;10.70;9.20;;;;;;;21.60;59.32;99148.81;233300;1217;140264;-63
2022/06/04 11:53:43;;;;;;;28.00;20.70;;;;;;;21.68;59.29;99147.92;233610;1216;138500;-61
2022/06/04 11:59:30;;;;;;;24.80;21.70;;;;;;;21.75;59.24;99148.23;233531;1217;141080;-63
2022/06/04 12:04:47;;;;;;;20.90;18.20;;;;;;;21.83;59.13;99149.23;233453;1216;140120;-63
2022/06/04 12:10:05;;;;;;;51.10;45.50;;;;;;;21.80;59.06;99142.42;233765;1216;139005;-63
2022/06/04 12:15:21;;;;;;;9.30;6.20;;;;;;;21.76;59.23;99144.67;233659;1217;138889;-65
2022/06/04 12:26:01;;;;;;;130.20;111.60;;;;;;;21.91;59.69;99139.47;233422;1217;139063;-62
2022/06/04 12:31:04;;;;;;;35.00;28.80;;;;;;;22.16;59.69;99145.83;233311;1217;139697;-63
2022/06/04 12:36:11;;;;;;;19.40;14.60;;;;;;;22.25;59.31;99149.92;233480;1217;138681;-63
2022/06/04 12:41:17;;;;;;;11.60;9.90;;;;;;;22.25;59.06;99144.29;233696;1217;139227;-61
2022/06/04 12:46:22;;;;;;;14.50;11.30;;;;;;;22.28;59.23;99141.62;233652;1216;139178;-62
2022/06/04 12:51:46;;;;;;;11.60;9.20;;;;;;;22.30;59.07;99135.25;233715;1217;138918;-62
2022/06/04 12:56:56;;;;;;;9.50;6.00;;;;;;;22.44;59.19;99143.86;233291;1217;138591;-61
2022/06/04 13:01:59;;;;;;;6.80;5.80;;;;;;;22.53;59.08;99147.60;233168;1217;138610;-60
2022/06/04 13:07:22;;;;;;;9.10;7.00;;;;;;;22.56;58.96;99141.43;233535;1217;139564;-63
2022/06/04 13:12:37;;;;;;;8.70;6.20;;;;;;;22.70;58.89;99147.67;233373;1217;138682;-60
2022/06/04 13:17:47;;;;;;;6.60;5.90;;;;;;;22.78;58.81;99146.59;233400;1217;139457;-60
2022/06/04 13:22:55;;;;;;;8.90;5.60;;;;;;;22.78;58.54;99144.46;233474;1217;139334;-61
2022/06/04 13:27:59;;;;;;;7.80;7.00;;;;;;;22.79;58.71;99150.27;233360;1217;138845;-61
2022/06/04 13:33:14;;;;;;;7.10;6.10;;;;;;;22.79;58.63;99142.34;233699;1217;138627;-62
2022/06/04 13:38:35;;;;;;;60.10;52.00;;;;;;;22.83;58.58;99140.95;233431;1217;139909;-63
2022/06/04 13:43:42;;;;;;;13.10;11.70;;;;;;;22.86;58.68;99141.04;233555;1217;139463;-62
2022/06/04 13:48:51;;;;;;;11.00;9.90;;;;;;;22.88;58.64;99141.67;233532;1217;139150;-60
2022/06/04 13:53:55;;;;;;;15.20;11.40;;;;;;;22.86;58.76;99138.05;233495;1217;138703;-59
2022/06/04 13:58:59;;;;;;;9.80;7.90;;;;;;;22.86;58.60;99139.72;233515;1217;141140;-62
2022/06/04 14:09:53;;;;;;;8.00;7.00;;;;;;;22.83;58.42;99144.81;233402;1217;139271;-64
2022/06/04 14:14:57;;;;;;;7.50;6.80;;;;;;;22.77;58.14;99147.63;233608;1217;139218;-62
2022/06/04 14:20:15;;;;;;;10.10;6.50;;;;;;;22.66;58.12;99145.81;233673;1217;139119;-62
2022/06/04 14:25:33;;;;;;;6.40;5.70;;;;;;;22.55;57.94;99150.98;233551;1217;139175;-61
2022/06/04 14:31:13;;;;;;;7.40;5.20;;;;;;;22.38;58.18;99144.47;233605;1216;138618;-62
2022/06/04 14:36:21;;;;;;;7.80;5.50;;;;;;;22.28;58.22;99152.71;233486;1217;139418;-62
2022/06/04 14:41:36;;;;;;;6.60;6.00;;;;;;;22.15;58.41;99153.33;233362;1217;138620;-62
2022/06/04 14:47:15;;;;;;;24.40;21.10;;;;;;;22.02;58.53;99155.34;233511;1216;139590;-61
2022/06/04 14:52:38;;;;;;;9.40;7.40;;;;;;;21.98;58.95;99158.49;233578;1217;140167;-62
2022/06/04 14:57:53;;;;;;;7.20;6.40;;;;;;;22.03;59.25;99164.95;233595;1216;139138;-63
2022/06/04 15:03:14;;;;;;;7.40;6.70;;;;;;;22.00;59.44;99163.62;233622;1217;138628;-62
2022/06/04 15:08:32;;;;;;;8.40;7.20;;;;;;;21.93;59.44;99159.60;233536;1217;138597;-63
2022/06/04 15:14:03;;;;;;;8.70;7.80;;;;;;;21.84;59.47;99163.94;233234;1217;138617;-62
2022/06/04 15:19:15;;;;;;;7.60;6.80;;;;;;;21.78;59.58;99163.08;233577;1216;139402;-62
2022/06/04 15:24:53;;;;;;;50.00;43.10;;;;;;;21.75;59.98;99165.58;233441;1217;139444;-62
2022/06/04 15:35:47;;;;;;;8.40;7.50;;;;;;;21.76;60.59;99165.70;233492;1217;140119;-63
2022/06/04 15:40:58;;;;;;;7.80;6.50;;;;;;;21.66;60.53;99171.89;233384;1217;139268;-62
2022/06/04 15:46:20;;;;;;;6.10;5.50;;;;;;;21.56;60.65;99169.95;233450;1217;138529;-64
2022/06/04 15:57:39;;;;;;;6.20;5.60;;;;;;;21.38;61.11;99174.94;233627;1217;139987;-64
2022/06/04 16:02:43;;;;;;;5.90;5.20;;;;;;;21.27;61.12;99175.70;233455;1217;138940;-64
2022/06/04 16:08:04;;;;;;;7.10;5.60;;;;;;;21.19;61.39;99178.35;233505;1216;138979;-62
2022/06/04 16:13:11;;;;;;;5.40;4.90;;;;;;;21.08;61.49;99189.23;233400;1217;140049;-63
2022/06/04 16:18:55;;;;;;;5.00;4.60;;;;;;;21.02;61.72;99185.96;233488;1216;139577;-61
2022/06/04 16:24:09;;;;;;;5.70;5.20;;;;;;;21.02;61.95;99190.71;233476;1217;139030;-61
2022/06/04 16:29:21;;;;;;;6.90;5.30;;;;;;;21.11;62.29;99197.76;233593;1216;138591;-61
2022/06/04 16:34:47;;;;;;;20.00;11.80;;;;;;;21.13;62.21;99190.18;233580;1216;138968;-60
2022/06/04 16:39:50;;;;;;;16.50;9.90;;;;;;;21.22;63.25;99188.02;233624;1215;138899;-61
2022/06/04 16:45:01;;;;;;;13.60;7.10;;;;;;;21.52;63.67;99184.59;233586;1217;138967;-61
2022/06/04 16:50:05;;;;;;;22.20;19.90;;;;;;;21.75;63.48;99182.60;233491;1217;139748;-62
2022/06/04 16:55:13;;;;;;;16.80;13.70;;;;;;;21.84;63.39;99178.40;233364;1217;139944;-60
2022/06/04 17:00:22;;;;;;;22.10;17.20;;;;;;;21.93;63.05;99184.38;233609;1216;139723;-61
2022/06/04 17:05:40;;;;;;;20.50;16.10;;;;;;;21.96;62.76;99179.35;233489;1217;139810;-61
2022/06/04 17:10:51;;;;;;;33.30;21.90;;;;;;;22.01;62.61;99180.83;233466;1217;138936;-60
2022/06/04 17:16:00;;;;;;;31.20;19.50;;;;;;;22.01;62.44;99187.20;233530;1217;139764;-60
2022/06/04 17:21:31;;;;;;;29.70;17.60;;;;;;;22.06;62.25;99200.98;233580;1216;138842;-62
2022/06/04 17:26:44;;;;;;;36.90;24.40;;;;;;;22.05;62.21;99197.75;233493;1217;138392;-60
2022/06/04 17:32:04;;;;;;;18.90;13.40;;;;;;;22.04;61.90;99195.38;233369;1217;139481;-61
2022/06/04 17:37:32;;;;;;;48.30;40.40;;;;;;;21.99;61.82;99196.41;233583;1217;140589;-61
2022/06/04 17:42:35;;;;;;;39.10;32.30;;;;;;;22.00;61.69;99207.17;233361;1216;140601;-60
2022/06/04 17:47:39;;;;;;;10.10;8.90;;;;;;;21.96;61.75;99221.64;233433;1217;138341;-62
2022/06/04 17:52:43;;;;;;;6.50;5.80;;;;;;;21.87;61.41;99218.70;233586;1217;139023;-62
2022/06/04 17:57:47;;;;;;;22.00;19.50;;;;;;;21.65;61.21;99229.96;233584;1217;138558;-64
2022/06/04 18:02:52;;;;;;;12.00;10.70;;;;;;;21.67;61.85;99240.88;233411;1217;139743;-61
2022/06/04 18:07:55;;;;;;;12.90;11.00;;;;;;;21.69;61.85;99248.71;233506;1217;140534;-62
2022/06/04 18:12:59;;;;;;;20.90;18.00;;;;;;;21.70;61.88;99252.75;233446;1217;140702;-62
2022/06/04 18:18:03;;;;;;;27.10;21.10;;;;;;;21.69;61.69;99250.03;233503;1216;139689;-62
2022/06/04 18:23:06;;;;;;;8.40;7.00;;;;;;;21.65;61.61;99246.20;233392;1217;139033;-61
2022/06/04 18:28:11;;;;;;;6.80;6.20;;;;;;;21.57;61.62;99255.30;233503;1217;138913;-62
2022/06/04 18:33:15;;;;;;;6.40;5.80;;;;;;;21.48;61.53;99261.81;233448;1217;138798;-64
2022/06/04 18:38:18;;;;;;;5.80;5.10;;;;;;;21.27;60.98;99253.49;233514;1217;138909;-64
2022/06/04 18:54:26;;;;;;;6.90;6.20;;;;;;;20.67;61.43;99253.98;233541;1217;138631;-62
2022/06/04 18:59:29;;;;;;;7.40;6.10;;;;;;;20.50;61.74;99254.98;233539;1217;138458;-61
2022/06/04 19:04:32;;;;;;;7.00;6.30;;;;;;;20.39;62.04;99270.46;233554;1216;138902;-62
2022/06/04 19:09:35;;;;;;;24.90;19.90;;;;;;;20.31;62.21;99281.50;233562;1217;138482;-62
2022/06/04 19:14:41;;;;;;;7.20;6.40;;;;;;;20.27;62.24;99284.64;233672;1217;139518;-62
2022/06/04 19:24:36;;;;;;;8.20;6.60;;;;;;;20.25;62.48;99296.87;233824;1217;138586;-61
2022/06/04 19:25:07;;;;;;;8.30;7.00;;;;;;;20.23;62.76;99306.81;233389;1217;138879;-61
2022/06/04 19:30:11;;;;;;;8.60;6.70;;;;;;;20.17;62.70;99305.58;233585;1216;138730;-62
2022/06/04 19:35:14;;;;;;;8.00;7.10;;;;;;;20.10;62.83;99318.34;233498;1217;138217;-61
2022/06/04 19:40:17;;;;;;;9.90;6.80;;;;;;;19.98;62.86;99311.20;233439;1217;139096;-61
2022/06/04 19:45:20;;;;;;;9.80;6.80;;;;;;;19.96;63.04;99320.41;233608;1217;139186;-61
2022/06/04 19:50:23;;;;;;;7.90;7.10;;;;;;;19.92;63.15;99324.04;233568;1217;139051;-62
2022/06/04 19:55:26;;;;;;;8.30;7.50;;;;;;;19.88;63.15;99317.39;233568;1217;139203;-63
2022/06/04 20:00:29;;;;;;;12.40;8.60;;;;;;;19.85;63.27;99315.90;233564;1215;139309;-62
2022/06/04 20:05:32;;;;;;;10.00;8.40;;;;;;;19.77;63.30;99299.39;233692;1217;141466;-63
2022/06/04 20:10:35;;;;;;;10.50;7.70;;;;;;;19.66;63.44;99296.79;233545;1215;138821;-63
2022/06/04 20:15:38;;;;;;;10.90;7.90;;;;;;;19.62;63.41;99287.72;233767;1217;140360;-63
2022/06/04 20:20:43;;;;;;;9.20;8.20;;;;;;;19.57;63.41;99285.39;233683;1216;138520;-61
2022/06/04 20:25:48;;;;;;;13.50;8.70;;;;;;;19.55;63.65;99277.16;233491;1217;138572;-60
2022/06/04 20:30:57;;;;;;;12.60;9.70;;;;;;;19.48;63.56;99282.33;233642;1217;138700;-62
2022/06/04 20:36:02;;;;;;;11.50;9.10;;;;;;;19.40;63.64;99299.45;233596;1216;138951;-62
2022/06/04 20:41:10;;;;;;;12.10;9.70;;;;;;;19.34;63.86;99300.71;233607;1217;245345;-62
2022/06/04 20:46:16;;;;;;;12.10;9.10;;;;;;;19.33;63.93;99291.83;233606;1216;139887;-62
2022/06/04 20:51:22;;;;;;;12.70;9.90;;;;;;;19.32;64.06;99286.88;233805;1217;139237;-59
2022/06/04 20:56:28;;;;;;;13.90;10.40;;;;;;;19.36;64.10;99298.52;233705;1215;138524;-60
2022/06/04 21:01:32;;;;;;;12.50;10.30;;;;;;;19.36;64.11;99297.27;233817;1217;139320;-61
2022/06/04 21:06:36;;;;;;;12.80;10.00;;;;;;;19.35;64.16;99305.48;233586;1216;139153;-61
2022/06/04 21:11:39;;;;;;;10.30;9.30;;;;;;;19.29;64.22;99297.25;233760;1217;139649;-61
2022/06/04 21:16:43;;;;;;;12.10;9.60;;;;;;;19.27;64.16;99295.27;233687;1216;139995;-61
2022/06/04 21:21:46;;;;;;;14.00;11.30;;;;;;;19.29;64.33;99287.77;233817;1216;139483;-62
2022/06/04 21:26:50;;;;;;;12.20;10.80;;;;;;;19.26;64.38;99280.98;233711;1216;138802;-62
2022/06/04 21:31:55;;;;;;;10.90;9.70;;;;;;;19.21;64.32;99285.96;233538;1217;138907;-61
2022/06/04 21:42:20;;;;;;;10.20;8.60;;;;;;;19.18;64.66;99299.57;233742;1216;139525;-63
2022/06/04 21:47:23;;;;;;;10.70;9.40;;;;;;;19.20;64.87;99312.35;233590;1217;138996;-63
2022/06/04 21:52:26;;;;;;;12.30;10.80;;;;;;;19.23;64.88;99312.20;233629;1217;138851;-63
2022/06/04 21:57:29;;;;;;;14.00;9.60;;;;;;;19.24;64.92;99311.10;233757;1216;139099;-64
2022/06/04 22:02:32;;;;;;;11.90;9.60;;;;;;;19.23;64.82;99314.91;233620;1217;139183;-62
2022/06/04 22:07:35;;;;;;;11.30;8.90;;;;;;;19.19;64.78;99311.49;233789;1215;139100;-63
2022/06/04 22:12:38;;;;;;;9.50;8.50;;;;;;;19.20;64.82;99318.77;233617;1217;139459;-63
2022/06/04 22:17:41;;;;;;;10.00;8.40;;;;;;;19.19;64.75;99316.33;233900;1216;139767;-65
2022/06/04 22:22:44;;;;;;;9.80;8.80;;;;;;;19.18;64.78;99318.11;233836;1217;138648;-61
2022/06/04 22:27:47;;;;;;;10.80;8.40;;;;;;;19.22;64.92;99319.48;233715;1216;138388;-60
2022/06/04 22:32:50;;;;;;;9.30;8.40;;;;;;;19.19;64.84;99325.34;233819;1215;139632;-62
2022/06/04 22:37:56;;;;;;;8.90;7.70;;;;;;;19.14;64.67;99321.10;233719;1216;139749;-61
2022/06/04 22:42:59;;;;;;;10.20;8.00;;;;;;;19.08;64.43;99314.11;233694;1215;139478;-62
2022/06/04 22:48:03;;;;;;;11.50;8.20;;;;;;;19.06;64.59;99324.02;233819;1217;141609;-61
2022/06/04 22:53:07;;;;;;;9.70;7.80;;;;;;;19.02;64.40;99334.17;233838;1215;139843;-62
2022/06/04 22:58:10;;;;;;;9.00;8.10;;;;;;;18.98;64.70;99334.85;233789;1217;138334;-63
2022/06/04 23:03:13;;;;;;;9.30;8.30;;;;;;;18.94;64.61;99328.17;233804;1217;139766;-62
2022/06/04 23:08:16;;;;;;;9.30;7.50;;;;;;;18.94;64.82;99326.06;233661;1217;138548;-62
2022/06/04 23:24:03;;;;;;;8.70;7.80;;;;;;;18.89;64.78;99348.46;233604;1217;138652;-62
2022/06/04 23:29:06;;;;;;;9.50;8.40;;;;;;;18.87;64.82;99346.34;233600;1217;140508;-63
2022/06/04 23:34:09;;;;;;;9.90;8.30;;;;;;;18.84;64.88;99347.50;233725;1216;138691;-61
2022/06/04 23:39:13;;;;;;;8.60;7.80;;;;;;;18.78;64.79;99350.20;233679;1216;138300;-60
2022/06/04 23:44:16;;;;;;;13.20;8.50;;;;;;;18.77;64.87;99342.75;233611;1217;139535;-65
2022/06/04 23:49:19;;;;;;;10.30;8.70;;;;;;;18.80;64.96;99339.00;233620;1217;138841;-63
2022/06/04 23:54:22;;;;;;;10.00;9.00;;;;;;;18.78;65.09;99335.81;233564;1217;139187;-62
2022/06/04 23:59:25;;;;;;;11.80;8.90;;;;;;;18.76;65.08;99327.77;233623;1216;139220;-63
